createdAt,value
2022-08-05T00:01:36.358Z,8.33
2022-08-05T00:04:17.571Z,8.97
2022-08-05T00:06:47.068Z,7.77
2022-08-05T00:09:19.532Z,9.10
2022-08-05T00:11:56.089Z,10.03
2022-08-05T00:14:29.112Z,9.80
2022-08-05T00:16:58.079Z,12.50
2022-08-05T00:19:33.537Z,7.87
2022-08-05T00:22:02.383Z,8.47
2022-08-05T00:24:31.186Z,8.97
2022-08-05T00:27:01.665Z,9.30
2022-08-05T00:29:37.955Z,9.17
2022-08-05T00:32:12.398Z,10.63
2022-08-05T00:35:04.825Z,13.97
2022-08-05T00:37:50.330Z,7.80
2022-08-05T00:40:27.768Z,10.13
2022-08-05T00:43:02.616Z,9.53
2022-08-05T00:45:43.146Z,10.47
2022-08-05T00:48:13.841Z,10.97
2022-08-05T00:50:46.086Z,9.77
2022-08-05T00:53:45.092Z,8.93
2022-08-05T00:56:04.688Z,11.50
2022-08-05T00:58:34.293Z,9.90
2022-08-05T01:01:02.628Z,9.77
2022-08-05T01:03:37.072Z,9.13
2022-08-05T01:06:06.351Z,13.03
2022-08-05T01:08:44.104Z,10.40
2022-08-05T01:11:22.708Z,11.93
2022-08-05T01:14:28.351Z,9.10
2022-08-05T01:17:07.178Z,6.80
2022-08-05T01:20:02.025Z,11.07
2022-08-05T01:22:47.037Z,7.33
2022-08-05T01:25:53.828Z,10.23
2022-08-05T01:28:34.918Z,8.53
2022-08-05T01:31:18.294Z,7.87
2022-08-05T01:33:55.614Z,10.30
2022-08-05T01:36:32.092Z,12.83
2022-08-05T01:39:02.213Z,10.03
2022-08-05T01:41:37.494Z,8.80
2022-08-05T01:44:09.694Z,8.50
2022-08-05T01:46:42.868Z,7.50
2022-08-05T01:49:23.620Z,9.37
2022-08-05T01:52:01.060Z,9.27
2022-08-05T01:54:45.860Z,7.87
2022-08-05T01:58:12.357Z,8.50
2022-08-05T02:00:12.397Z,9.43
2022-08-05T02:02:53.703Z,8.33
2022-08-05T02:05:31.566Z,9.23
2022-08-05T02:08:03.074Z,9.03
2022-08-05T02:10:38.078Z,6.23
2022-08-05T02:13:16.079Z,8.83
2022-08-05T02:15:51.993Z,9.53
2022-08-05T02:18:34.357Z,7.63
2022-08-05T02:21:14.821Z,8.23
2022-08-05T02:23:50.399Z,8.63
2022-08-05T02:26:26.488Z,6.53
2022-08-05T02:28:58.535Z,9.07
2022-08-05T02:31:34.965Z,6.87
2022-08-05T02:34:09.202Z,7.93
2022-08-05T02:36:42.351Z,7.77
2022-08-05T02:39:11.044Z,9.27
2022-08-05T02:41:57.473Z,7.63
2022-08-05T02:44:31.652Z,8.30
2022-08-05T02:47:02.257Z,7.70
2022-08-05T02:49:37.898Z,7.37
2022-08-05T02:52:13.699Z,6.83
2022-08-05T02:55:02.038Z,6.90
2022-08-05T02:58:12.349Z,7.97
2022-08-05T03:00:22.841Z,7.90
2022-08-05T03:02:55.754Z,6.40
2022-08-05T03:06:53.645Z,6.43
2022-08-05T03:08:14.608Z,10.13
2022-08-05T03:11:55.598Z,6.33
2022-08-05T03:13:51.426Z,6.93
2022-08-05T03:16:22.377Z,9.83
2022-08-05T03:18:52.516Z,7.27
2022-08-05T03:21:20.765Z,6.53
2022-08-05T03:23:50.061Z,5.87
2022-08-05T03:26:31.813Z,7.03
2022-08-05T03:29:01.030Z,6.13
2022-08-05T03:31:56.744Z,7.13
2022-08-05T03:34:19.791Z,6.77
2022-08-05T03:36:52.698Z,6.93
2022-08-05T03:39:27.117Z,8.33
2022-08-05T03:41:56.528Z,5.40
2022-08-05T03:44:25.221Z,8.23
2022-08-05T03:46:57.507Z,6.47
2022-08-05T03:49:31.106Z,8.00
2022-08-05T03:52:49.297Z,8.23
2022-08-05T03:56:04.251Z,6.70
2022-08-05T03:58:12.492Z,7.20
2022-08-05T04:00:42.584Z,7.73
2022-08-05T04:03:28.182Z,6.20
2022-08-05T04:05:59.954Z,9.57
2022-08-05T04:08:36.121Z,6.83
2022-08-05T04:11:07.359Z,11.43
2022-08-05T04:13:51.235Z,6.27
2022-08-05T04:16:24.116Z,6.60
2022-08-05T04:18:54.304Z,8.97
2022-08-05T04:22:08.931Z,6.23
2022-08-05T04:24:19.345Z,6.57
2022-08-05T04:26:50.553Z,5.73
2022-08-05T04:29:19.976Z,7.03
2022-08-05T04:31:48.503Z,6.90
2022-08-05T04:34:33.410Z,6.10
2022-08-05T04:37:04.918Z,7.17
2022-08-05T04:39:35.417Z,7.20
2022-08-05T04:42:04.291Z,7.70
2022-08-05T04:44:32.462Z,6.47
2022-08-05T04:47:09.778Z,8.30
2022-08-05T04:50:03.031Z,8.53
2022-08-05T04:52:29.336Z,7.07
2022-08-05T04:55:15.091Z,7.20
2022-08-05T04:57:47.904Z,7.60
2022-08-05T05:00:23.907Z,6.80
2022-08-05T05:02:52.850Z,7.33
2022-08-05T05:05:28.204Z,8.83
2022-08-05T05:08:03.498Z,8.47
2022-08-05T05:10:34.780Z,6.40
2022-08-05T05:13:04.298Z,7.13
2022-08-05T05:15:57.577Z,6.10
2022-08-05T05:18:31.087Z,7.73
2022-08-05T05:21:03.068Z,9.00
2022-08-05T05:23:39.398Z,6.87
2022-08-05T05:26:28.824Z,7.67
2022-08-05T05:29:02.321Z,9.20
2022-08-05T05:34:02.809Z,6.77
2022-08-05T05:36:32.096Z,7.90
2022-08-05T05:39:03.545Z,8.87
2022-08-05T05:41:40.712Z,6.43
2022-08-05T05:44:35.838Z,7.33
2022-08-05T05:47:04.607Z,6.80
2022-08-05T05:49:47.564Z,8.17
2022-08-05T05:52:29.969Z,6.77
2022-08-05T05:55:07.335Z,8.27
2022-08-05T05:57:52.441Z,8.60
2022-08-05T06:00:31.534Z,10.03
2022-08-05T06:03:03.206Z,7.03
2022-08-05T06:05:53.902Z,7.33
2022-08-05T06:08:32.589Z,6.77
2022-08-05T06:11:02.957Z,6.67
2022-08-05T06:13:40.791Z,7.33
2022-08-05T06:16:30.281Z,6.23
2022-08-05T06:19:02.076Z,5.53
2022-08-05T06:21:36.719Z,6.27
2022-08-05T06:24:11.489Z,7.80
2022-08-05T06:26:52.178Z,7.10
2022-08-05T06:29:42.821Z,5.43
2022-08-05T06:32:25.674Z,5.17
2022-08-05T06:34:58.685Z,4.90
2022-08-05T06:37:57.700Z,5.13
2022-08-05T06:40:18.549Z,6.23
2022-08-05T06:42:52.299Z,4.93
2022-08-05T06:45:44.379Z,5.17
2022-08-05T06:48:36.459Z,3.73
2022-08-05T06:51:00.183Z,4.60
2022-08-05T06:53:29.364Z,4.00
2022-08-05T06:55:58.914Z,4.33
2022-08-05T06:58:36.179Z,2.80
2022-08-05T07:01:07.091Z,3.60
2022-08-05T07:03:36.034Z,2.53
2022-08-05T07:06:14.151Z,3.63
2022-08-05T07:08:47.511Z,2.53
2022-08-05T07:11:22.304Z,3.37
2022-08-05T07:14:15.342Z,3.27
2022-08-05T07:18:00.824Z,4.00
2022-08-05T07:22:32.063Z,3.33
2022-08-05T07:25:22.718Z,4.07
2022-08-05T07:27:57.639Z,2.93
2022-08-05T07:30:33.909Z,2.67
2022-08-05T07:33:05.455Z,3.40
2022-08-05T07:36:05.228Z,3.10
2022-08-05T07:38:33.932Z,3.23
2022-08-05T07:42:06.831Z,3.50
2022-08-05T07:43:55.158Z,3.97
2022-08-05T07:46:27.705Z,3.97
2022-08-05T07:49:02.100Z,2.23
2022-08-05T07:51:36.888Z,4.43
2022-08-05T07:54:10.557Z,2.43
2022-08-05T07:57:13.886Z,3.07
2022-08-05T07:59:39.038Z,4.43
2022-08-05T08:02:16.596Z,2.87
2022-08-05T08:04:48.573Z,3.00
2022-08-05T08:07:22.178Z,1.83
2022-08-05T08:09:54.876Z,2.10
2022-08-05T08:12:37.053Z,4.77
2022-08-05T08:15:15.735Z,2.47
2022-08-05T08:17:52.458Z,1.83
2022-08-05T08:20:59.771Z,3.70
2022-08-05T08:24:02.841Z,2.65
2022-08-05T08:26:02.699Z,5.65
2022-08-05T08:28:36.083Z,3.10
2022-08-05T08:31:15.044Z,3.58
2022-08-05T08:33:51.442Z,5.10
2022-08-05T08:36:38.127Z,1.80
2022-08-05T08:39:15.526Z,2.20
2022-08-05T08:41:52.579Z,2.50
2022-08-05T08:45:24.221Z,3.25
2022-08-05T08:48:05.703Z,2.08
2022-08-05T08:50:52.071Z,2.90
2022-08-05T08:53:12.165Z,2.85
2022-08-05T08:56:04.693Z,2.53
2022-08-05T08:58:43.875Z,1.98
2022-08-05T09:01:19.812Z,2.72
2022-08-05T09:03:52.931Z,2.65
2022-08-05T09:06:28.032Z,2.30
2022-08-05T09:08:59.957Z,2.55
2022-08-05T09:11:52.531Z,0.90
2022-08-05T09:14:57.503Z,1.77
2022-08-05T09:17:41.354Z,1.65
2022-08-05T09:20:02.902Z,2.05
2022-08-05T09:23:18.269Z,1.65
2022-08-05T09:26:01.996Z,2.72
2022-08-05T09:28:34.487Z,1.40
2022-08-05T09:31:22.570Z,3.28
2022-08-05T09:33:56.727Z,2.00
2022-08-05T09:36:27.466Z,1.40
2022-08-05T09:39:16.756Z,1.58
2022-08-05T09:41:58.346Z,1.13
2022-08-05T09:44:38.445Z,2.47
2022-08-05T09:47:15.598Z,2.15
2022-08-05T09:50:01.973Z,2.58
2022-08-05T09:52:33.945Z,2.95
2022-08-05T09:55:56.562Z,2.95
2022-08-05T09:57:59.743Z,4.32
2022-08-05T10:00:30.399Z,2.50
2022-08-05T10:02:59.389Z,1.67
2022-08-05T10:05:32.800Z,1.52
2022-08-05T10:08:34.718Z,2.07
2022-08-05T10:10:54.651Z,1.38
2022-08-05T10:13:45.841Z,2.70
2022-08-05T10:16:37.625Z,1.35
2022-08-05T10:19:11.849Z,3.07
2022-08-05T10:21:41.047Z,1.57
2022-08-05T10:24:13.229Z,1.90
2022-08-05T10:26:49.012Z,2.17
2022-08-05T10:29:24.078Z,1.50
2022-08-05T10:32:55.078Z,1.63
2022-08-05T10:35:00.966Z,1.23
2022-08-05T10:37:40.166Z,2.97
2022-08-05T10:40:27.954Z,2.38
2022-08-05T10:43:04.662Z,1.33
2022-08-05T10:45:41.780Z,2.80
2022-08-05T10:48:52.860Z,1.48
2022-08-05T10:51:28.827Z,1.13
2022-08-05T10:54:01.692Z,1.83
2022-08-05T10:56:32.036Z,2.22
2022-08-05T11:00:01.322Z,1.60
2022-08-05T11:02:14.156Z,1.10
2022-08-05T11:04:58.014Z,2.03
2022-08-05T11:07:32.974Z,0.90
2022-08-05T11:10:27.162Z,1.60
2022-08-05T11:12:56.450Z,1.85
2022-08-05T11:15:59.157Z,1.85
2022-08-05T11:18:29.837Z,1.73
2022-08-05T11:20:59.098Z,2.90
2022-08-05T11:24:05.500Z,1.33
2022-08-05T11:26:33.429Z,0.75
2022-08-05T11:29:06.957Z,1.75
2022-08-05T11:31:56.520Z,2.55
2022-08-05T11:34:51.144Z,0.50
2022-08-05T11:38:28.889Z,0.80
2022-08-05T11:41:35.556Z,0.70
2022-08-05T11:44:07.224Z,1.05
2022-08-05T11:47:09.656Z,2.95
2022-08-05T11:49:33.939Z,5.35
2022-08-05T11:52:08.690Z,1.95
2022-08-05T11:54:41.284Z,3.40
2022-08-05T11:57:25.391Z,1.70
2022-08-05T11:59:54.657Z,1.23
2022-08-05T12:02:33.125Z,2.80
2022-08-05T12:05:07.710Z,0.90
2022-08-05T12:08:08.553Z,1.15
2022-08-05T12:10:43.783Z,1.52
2022-08-05T12:13:27.935Z,1.65
2022-08-05T12:16:14.685Z,3.58
2022-08-05T12:18:49.608Z,4.05
2022-08-05T12:21:24.834Z,1.85
2022-08-05T12:24:04.369Z,1.38
2022-08-05T12:26:35.463Z,0.90
2022-08-05T12:29:07.761Z,1.38
2022-08-05T12:31:42.489Z,1.88
2022-08-05T12:34:21.209Z,1.52
2022-08-05T12:36:51.959Z,1.50
2022-08-05T12:39:20.504Z,1.73
2022-08-05T12:41:48.917Z,2.10
2022-08-05T12:44:28.602Z,2.78
2022-08-05T12:47:02.309Z,1.40
2022-08-05T12:50:03.016Z,2.22
2022-08-05T12:52:38.621Z,1.38
2022-08-05T12:55:22.702Z,2.58
2022-08-05T12:58:51.431Z,1.20
2022-08-05T13:02:03.019Z,2.75
2022-08-05T13:03:38.867Z,1.92
2022-08-05T13:06:16.444Z,2.88
2022-08-05T13:08:51.867Z,1.77
2022-08-05T13:11:25.604Z,1.30
2022-08-05T13:14:24.763Z,2.08
2022-08-05T13:17:09.929Z,3.55
2022-08-05T13:19:51.043Z,1.50
2022-08-05T13:22:28.363Z,1.42
2022-08-05T13:25:00.757Z,3.55
2022-08-05T13:27:38.245Z,2.47
2022-08-05T13:30:34.168Z,1.27
2022-08-05T13:33:01.416Z,1.95
2022-08-05T13:35:43.008Z,2.25
2022-08-05T13:38:30.782Z,2.60
2022-08-05T13:41:00.481Z,2.85
2022-08-05T13:43:45.825Z,0.90
2022-08-05T13:46:30.830Z,2.13
2022-08-05T13:49:10.544Z,0.80
2022-08-05T13:51:46.087Z,4.15
2022-08-05T13:54:21.185Z,1.55
2022-08-05T13:56:53.917Z,1.42
2022-08-05T13:59:25.322Z,1.95
2022-08-05T14:01:58.979Z,2.38
2022-08-05T14:04:50.139Z,2.42
2022-08-05T14:07:54.986Z,1.60
2022-08-05T14:10:12.921Z,1.83
2022-08-05T14:12:42.676Z,2.55
2022-08-05T14:16:08.395Z,1.95
2022-08-05T14:18:01.023Z,2.35
2022-08-05T14:20:30.676Z,1.48
2022-08-05T14:22:58.986Z,1.30
2022-08-05T14:25:30.038Z,0.70
2022-08-05T14:27:58.767Z,2.10
2022-08-05T14:30:28.401Z,1.75
2022-08-05T14:33:00.000Z,1.77
2022-08-05T14:35:36.257Z,1.27
2022-08-05T14:38:05.891Z,0.80
2022-08-05T14:40:55.707Z,1.30
2022-08-05T14:43:59.606Z,1.33
2022-08-05T14:46:13.035Z,2.20
2022-08-05T14:48:41.429Z,4.10
2022-08-05T14:51:09.962Z,3.38
2022-08-05T14:53:44.429Z,3.58
2022-08-05T14:56:14.963Z,1.67
2022-08-05T14:58:53.140Z,4.68
2022-08-05T15:01:48.091Z,2.80
2022-08-05T15:04:11.966Z,3.65
2022-08-05T15:06:40.601Z,3.30
2022-08-05T15:09:08.797Z,1.48
2022-08-05T15:11:51.389Z,4.57
2022-08-05T15:14:34.872Z,4.43
2022-08-05T15:17:10.027Z,1.95
2022-08-05T15:19:55.665Z,1.55
2022-08-05T15:22:26.685Z,1.85
2022-08-05T15:24:56.031Z,3.38
2022-08-05T15:27:26.053Z,1.02
2022-08-05T15:29:56.662Z,3.58
2022-08-05T15:32:27.205Z,2.95
2022-08-05T15:34:55.705Z,2.45
2022-08-05T15:38:08.601Z,1.75
2022-08-05T15:41:01.709Z,3.28
2022-08-05T15:43:20.443Z,1.60
2022-08-05T15:46:00.663Z,4.05
2022-08-05T15:48:30.609Z,2.13
2022-08-05T15:51:03.290Z,2.65
2022-08-05T15:53:38.375Z,2.95
2022-08-05T15:56:19.093Z,3.17
2022-08-05T15:58:48.721Z,3.30
2022-08-05T16:01:20.006Z,4.13
2022-08-05T16:03:50.601Z,0.85
2022-08-05T16:06:20.890Z,3.70
2022-08-05T16:08:55.314Z,1.55
2022-08-05T16:11:39.874Z,1.98
2022-08-05T16:14:10.075Z,1.88
2022-08-05T16:16:47.220Z,2.13
2022-08-05T16:19:25.627Z,4.70
2022-08-05T16:22:04.899Z,1.27
2022-08-05T16:24:41.265Z,2.80
2022-08-05T16:27:19.416Z,2.10
2022-08-05T16:30:03.902Z,1.83
2022-08-05T16:32:32.438Z,1.67
2022-08-05T16:35:02.320Z,1.48
2022-08-05T16:38:16.828Z,1.52
2022-08-05T16:40:28.525Z,1.02
2022-08-05T16:42:57.499Z,3.00
2022-08-05T16:46:07.178Z,1.52
2022-08-05T16:48:25.397Z,0.93
2022-08-05T16:50:54.781Z,1.63
2022-08-05T16:53:32.269Z,1.45
2022-08-05T16:56:00.922Z,3.55
2022-08-05T16:58:32.248Z,1.63
2022-08-05T17:01:02.466Z,1.67
2022-08-05T17:03:34.870Z,3.47
2022-08-05T17:06:03.426Z,2.03
2022-08-05T17:08:36.441Z,1.95
2022-08-05T17:11:23.774Z,1.83
2022-08-05T17:14:00.200Z,1.75
2022-08-05T17:16:36.462Z,0.77
2022-08-05T17:19:07.642Z,1.73
2022-08-05T17:21:39.687Z,2.90
2022-08-05T17:24:28.055Z,2.80
2022-08-05T17:27:00.112Z,1.33
2022-08-05T17:29:33.973Z,1.30
2022-08-05T17:32:16.566Z,1.50
2022-08-05T17:34:47.666Z,1.73
2022-08-05T17:37:40.803Z,0.85
2022-08-05T17:40:10.922Z,1.05
2022-08-05T17:42:51.937Z,2.15
2022-08-05T17:45:23.043Z,2.58
2022-08-05T17:47:56.111Z,1.40
2022-08-05T17:50:28.475Z,1.67
2022-08-05T17:53:04.742Z,1.48
2022-08-05T17:55:40.059Z,1.17
2022-08-05T17:58:11.116Z,1.20
2022-08-05T18:00:44.981Z,3.22
2022-08-05T18:03:56.539Z,2.10
2022-08-05T18:06:12.196Z,2.13
2022-08-05T18:08:52.571Z,1.42
2022-08-05T18:11:24.579Z,1.40
2022-08-05T18:14:03.282Z,0.60
2022-08-05T18:16:33.173Z,1.45
2022-08-05T18:19:07.353Z,2.78
2022-08-05T18:22:08.709Z,1.42
2022-08-05T18:24:33.210Z,1.58
2022-08-05T18:27:01.474Z,1.17
2022-08-05T18:29:40.493Z,1.80
2022-08-05T18:32:13.217Z,1.17
2022-08-05T18:34:45.830Z,2.97
2022-08-05T18:37:33.220Z,1.95
2022-08-05T18:41:49.974Z,1.35
2022-08-05T18:42:50.701Z,2.03
2022-08-05T18:45:20.470Z,1.33
2022-08-05T18:47:56.287Z,2.58
2022-08-05T18:50:47.048Z,0.90
2022-08-05T18:53:22.212Z,2.28
2022-08-05T18:55:53.198Z,2.00
2022-08-05T18:58:28.932Z,0.65
2022-08-05T19:00:57.863Z,0.85
2022-08-05T19:03:53.401Z,0.77
2022-08-05T19:06:21.915Z,1.40
2022-08-05T19:09:06.872Z,2.00
2022-08-05T19:12:00.971Z,1.73
2022-08-05T19:14:37.554Z,2.97
2022-08-05T19:17:13.939Z,1.40
2022-08-05T19:19:47.069Z,1.43
2022-08-05T19:22:18.815Z,3.07
2022-08-05T19:24:54.378Z,1.77
2022-08-05T19:27:27.758Z,2.73
2022-08-05T19:30:02.969Z,1.50
2022-08-05T19:32:32.161Z,0.80
2022-08-05T19:35:05.847Z,1.57
2022-08-05T19:38:04.284Z,1.17
2022-08-05T19:40:27.329Z,0.70
2022-08-05T19:43:05.004Z,1.43
2022-08-05T19:45:36.447Z,1.70
2022-08-05T19:48:14.563Z,1.40
2022-08-05T19:50:50.953Z,1.27
2022-08-05T19:54:03.419Z,2.20
2022-08-05T19:56:13.619Z,3.73
2022-08-05T19:58:54.060Z,1.33
2022-08-05T20:01:28.288Z,1.33
2022-08-05T20:04:01.735Z,1.63
2022-08-05T20:06:32.125Z,1.83
2022-08-05T20:09:06.150Z,2.70
2022-08-05T20:11:48.307Z,3.23
2022-08-05T20:14:26.700Z,1.37
2022-08-05T20:16:59.181Z,4.63
2022-08-05T20:19:36.363Z,3.63
2022-08-05T20:22:12.295Z,4.00
2022-08-05T20:24:41.818Z,2.97
2022-08-05T20:27:13.105Z,1.57
2022-08-05T20:29:57.719Z,4.43
2022-08-05T20:32:27.743Z,1.53
2022-08-05T20:34:56.125Z,1.53
2022-08-05T20:38:06.053Z,3.73
2022-08-05T20:40:18.578Z,2.93
2022-08-05T20:42:46.760Z,2.27
2022-08-05T20:45:15.006Z,1.27
2022-08-05T20:47:43.763Z,2.97
2022-08-05T20:50:15.138Z,1.30
2022-08-05T20:52:43.999Z,1.40
2022-08-05T20:55:55.596Z,2.77
2022-08-05T20:58:07.035Z,1.67
2022-08-05T21:00:49.807Z,1.97
2022-08-05T21:03:22.429Z,2.77
2022-08-05T21:05:54.534Z,2.03
2022-08-05T21:08:32.882Z,2.90
2022-08-05T21:11:10.035Z,1.50
2022-08-05T21:13:56.516Z,2.70
2022-08-05T21:16:29.074Z,3.13
2022-08-05T21:19:00.435Z,3.70
2022-08-05T21:21:39.430Z,7.07
2022-08-05T21:24:15.300Z,3.37
2022-08-05T21:26:53.426Z,2.37
2022-08-05T21:29:31.785Z,3.80
2022-08-05T21:32:01.711Z,1.53
2022-08-05T21:34:31.699Z,2.17
2022-08-05T21:37:01.740Z,2.63
2022-08-05T21:39:30.873Z,1.77
2022-08-05T21:42:04.425Z,2.93
2022-08-05T21:44:33.260Z,2.60
2022-08-05T21:47:01.612Z,2.80
2022-08-05T21:49:48.645Z,2.87
2022-08-05T21:52:27.382Z,2.27
2022-08-05T21:54:57.122Z,2.00
2022-08-05T21:57:32.641Z,3.27
2022-08-05T22:00:04.931Z,2.63
2022-08-05T22:02:34.922Z,3.10
2022-08-05T22:05:04.594Z,3.17
2022-08-05T22:07:40.362Z,1.50
2022-08-05T22:10:26.651Z,3.47
2022-08-05T22:12:59.142Z,1.70
2022-08-05T22:16:01.211Z,1.70
2022-08-05T22:18:26.164Z,2.80
2022-08-05T22:20:55.781Z,2.80
2022-08-05T22:24:02.565Z,1.73
2022-08-05T22:26:50.524Z,4.50
2022-08-05T22:29:26.627Z,3.77
2022-08-05T22:31:59.558Z,2.80
2022-08-05T22:34:31.675Z,2.73
2022-08-05T22:37:00.379Z,4.63
2022-08-05T22:39:32.742Z,2.20
2022-08-05T22:42:11.043Z,2.93
2022-08-05T22:44:48.193Z,2.20
2022-08-05T22:47:29.751Z,2.47
2022-08-05T22:50:20.484Z,2.27
2022-08-05T22:52:48.882Z,4.67
2022-08-05T22:55:18.970Z,5.93
2022-08-05T22:57:49.345Z,4.83
2022-08-05T23:00:20.965Z,4.90
2022-08-05T23:02:50.615Z,5.40
2022-08-05T23:05:21.991Z,3.30
2022-08-05T23:07:51.543Z,4.73
2022-08-05T23:10:24.044Z,3.97
2022-08-05T23:12:55.802Z,2.70
2022-08-05T23:15:29.834Z,4.03
2022-08-05T23:18:06.111Z,3.20
2022-08-05T23:20:40.044Z,3.73
2022-08-05T23:23:11.306Z,3.70
2022-08-05T23:25:52.961Z,5.77
2022-08-05T23:28:23.934Z,4.60
2022-08-05T23:30:56.395Z,4.23
2022-08-05T23:34:05.283Z,6.63
2022-08-05T23:36:39.848Z,4.27
2022-08-05T23:39:17.233Z,5.93
2022-08-05T23:41:52.150Z,8.43
2022-08-05T23:44:22.554Z,4.30
2022-08-05T23:46:54.620Z,6.07
2022-08-05T23:49:35.754Z,4.60
2022-08-05T23:52:25.236Z,4.63
2022-08-05T23:54:54.371Z,4.47
2022-08-05T23:57:22.765Z,4.37
